Terminal Aerodrome Forecast
Issued by NWS

Home | Current Version | Previous Version | Graphics & Text | Print | Product List | Glossary On
Versions: 1 2 3 4 5 6 7 8 9 10 11 12 13 14 15 16 17 18 19 20 21 22 23 24 25 26 27 28 29 30 31 32 33 34 35 36 37 38
000
FTUS43 KABR 151739
TAFPIR
TAF
KPIR 151739Z 1518/1618 14010KT P6SM BKN070
      TEMPO 1518/1519 BKN020
     FM151900 13010KT P6SM BKN040
     FM152100 13011KT P6SM VCSH BKN070
     FM160100 VRB03KT 6SM SHRA BR BKN045
     FM160400 VRB03KT P6SM BKN035
     FM161100 33010KT P6SM BKN008
     FM161600 34013KT P6SM BKN040=

USA.gov is the U.S. government's official web portal to all federal, state and local government web resources and services.